createdAt,value
2018-08-25T00:00:01.919Z,10.43
2018-08-25T00:02:30.708Z,9.73
2018-08-25T00:04:59.492Z,8.93
2018-08-25T00:07:28.260Z,10.47
2018-08-25T00:09:57.281Z,10.03
2018-08-25T00:12:26.132Z,11.80
2018-08-25T00:14:54.916Z,8.80
2018-08-25T00:17:23.696Z,11.97
2018-08-25T00:19:52.620Z,9.57
2018-08-25T00:22:21.457Z,9.43
2018-08-25T00:24:50.260Z,13.70
2018-08-25T00:27:19.074Z,10.27
2018-08-25T00:29:47.907Z,11.53
2018-08-25T00:32:16.702Z,11.33
2018-08-25T00:34:45.482Z,9.13
2018-08-25T00:37:14.324Z,10.33
2018-08-25T00:39:43.224Z,11.80
2018-08-25T00:42:11.979Z,10.43
2018-08-25T00:44:40.796Z,9.10
2018-08-25T00:47:09.589Z,11.07
2018-08-25T00:49:38.510Z,10.20
2018-08-25T00:52:07.361Z,12.73
2018-08-25T00:54:36.179Z,9.43
2018-08-25T00:57:05.084Z,10.73
2018-08-25T00:59:33.898Z,11.03
2018-08-25T01:02:02.658Z,9.83
2018-08-25T01:04:31.524Z,9.23
2018-08-25T01:07:00.327Z,10.97
2018-08-25T01:09:29.095Z,11.07
2018-08-25T01:11:57.883Z,11.50
2018-08-25T01:14:26.718Z,10.13
2018-08-25T01:16:56.145Z,11.00
2018-08-25T01:19:24.917Z,10.47
2018-08-25T01:21:53.658Z,13.37
2018-08-25T01:24:22.486Z,8.70
2018-08-25T01:26:51.323Z,10.50
2018-08-25T01:29:20.488Z,12.53
2018-08-25T01:31:49.331Z,8.90
2018-08-25T01:34:18.138Z,10.17
2018-08-25T01:36:46.908Z,8.73
2018-08-25T01:39:15.776Z,9.53
2018-08-25T01:41:44.587Z,10.80
2018-08-25T01:44:13.403Z,9.60
2018-08-25T01:46:42.292Z,9.37
2018-08-25T01:49:11.056Z,10.13
2018-08-25T01:51:39.908Z,10.43
2018-08-25T01:54:09.184Z,10.13
2018-08-25T01:56:37.975Z,8.20
2018-08-25T01:59:06.784Z,9.93
2018-08-25T02:01:35.641Z,9.57
2018-08-25T02:04:04.521Z,10.33
2018-08-25T02:06:33.329Z,11.73
2018-08-25T02:09:02.109Z,10.33
2018-08-25T02:11:30.923Z,11.37
2018-08-25T02:13:59.718Z,9.53
2018-08-25T02:16:28.491Z,8.07
2018-08-25T02:18:57.320Z,13.43
2018-08-25T02:21:26.144Z,10.10
2018-08-25T02:23:54.958Z,9.20
2018-08-25T02:26:23.818Z,11.47
2018-08-25T02:28:52.715Z,10.43
2018-08-25T02:31:21.512Z,9.50
2018-08-25T02:33:50.319Z,11.73
2018-08-25T02:36:19.108Z,8.10
2018-08-25T02:38:48.105Z,7.97
2018-08-25T02:41:16.839Z,9.07
2018-08-25T02:43:45.624Z,9.50
2018-08-25T02:46:14.739Z,8.67
2018-08-25T02:48:43.531Z,11.40
2018-08-25T02:51:12.326Z,11.83
2018-08-25T02:53:41.099Z,11.57
2018-08-25T02:56:09.892Z,7.73
2018-08-25T02:58:38.654Z,9.97
2018-08-25T03:01:07.740Z,10.03
2018-08-25T03:03:36.534Z,7.20
2018-08-25T03:06:05.426Z,10.30
2018-08-25T03:08:34.287Z,10.17
2018-08-25T03:11:03.068Z,8.87
2018-08-25T03:13:31.842Z,8.33
2018-08-25T03:16:01.353Z,7.87
2018-08-25T03:18:30.230Z,8.07
2018-08-25T03:20:59.063Z,13.60
2018-08-25T03:23:27.823Z,9.13
2018-08-25T03:25:56.648Z,9.73
2018-08-25T03:28:25.431Z,9.33
2018-08-25T03:30:54.907Z,8.60
2018-08-25T03:33:23.674Z,11.07
2018-08-25T03:35:52.562Z,6.93
2018-08-25T03:38:21.387Z,10.57
2018-08-25T03:40:50.707Z,8.70
2018-08-25T03:43:19.488Z,7.30
2018-08-25T03:45:48.316Z,9.07
2018-08-25T03:48:17.112Z,6.53
2018-08-25T03:57:45.492Z,8.27
2018-08-25T04:00:14.556Z,10.33
2018-08-25T04:02:43.326Z,8.53
2018-08-25T04:05:12.112Z,8.37
2018-08-25T04:07:40.915Z,8.10
2018-08-25T04:10:09.801Z,7.37
2018-08-25T04:12:38.692Z,10.13
2018-08-25T04:15:08.260Z,7.97
2018-08-25T04:17:37.268Z,16.30
2018-08-25T04:20:06.294Z,8.00
2018-08-25T04:22:35.133Z,8.90
2018-08-25T04:25:04.155Z,8.67
2018-08-25T04:27:33.581Z,10.70
2018-08-25T04:30:02.416Z,9.13
2018-08-25T04:32:31.280Z,11.63
2018-08-25T04:35:00.072Z,9.63
2018-08-25T04:37:28.982Z,12.10
2018-08-25T04:39:57.798Z,10.13
2018-08-25T04:42:26.611Z,13.60
2018-08-25T04:44:55.457Z,7.50
2018-08-25T04:47:24.387Z,9.43
2018-08-25T04:49:53.787Z,6.73
2018-08-25T04:52:22.581Z,11.10
2018-08-25T04:54:51.398Z,8.10
2018-08-25T04:57:20.339Z,8.30
2018-08-25T04:59:49.143Z,7.60
2018-08-25T05:02:17.923Z,5.53
2018-08-25T05:04:46.691Z,9.40
2018-08-25T05:07:15.484Z,6.37
2018-08-25T05:09:44.286Z,7.07
2018-08-25T05:12:13.101Z,10.33
2018-08-25T05:14:41.937Z,9.73
2018-08-25T05:17:10.927Z,8.03
2018-08-25T05:19:39.832Z,8.37
2018-08-25T05:22:08.643Z,6.63
2018-08-25T05:24:37.429Z,9.00
2018-08-25T05:27:06.244Z,9.63
2018-08-25T05:29:35.032Z,7.50
2018-08-25T05:32:03.822Z,9.10
2018-08-25T05:34:32.624Z,9.57
2018-08-25T05:37:01.417Z,11.37
2018-08-25T05:39:30.232Z,9.80
2018-08-25T05:41:59.911Z,5.63
2018-08-25T05:44:28.739Z,8.50
2018-08-25T05:46:57.517Z,9.93
2018-08-25T05:49:26.328Z,8.10
2018-08-25T05:51:55.494Z,8.27
2018-08-25T05:54:24.361Z,7.10
2018-08-25T05:56:53.135Z,5.43
2018-08-25T05:59:21.948Z,6.93
2018-08-25T06:01:50.749Z,8.53
2018-08-25T06:04:19.525Z,6.27
2018-08-25T06:06:48.659Z,11.10
2018-08-25T06:09:17.546Z,8.23
2018-08-25T06:11:46.651Z,7.33
2018-08-25T06:14:15.423Z,9.53
2018-08-25T06:16:44.271Z,7.73
2018-08-25T06:19:13.065Z,9.50
2018-08-25T06:21:41.870Z,7.40
2018-08-25T06:24:11.195Z,9.47
2018-08-25T06:26:40.035Z,9.43
2018-08-25T06:29:08.947Z,5.83
2018-08-25T06:31:37.724Z,5.43
2018-08-25T06:34:06.528Z,10.47
2018-08-25T06:36:35.364Z,10.63
2018-08-25T06:39:06.156Z,5.53
2018-08-25T06:41:34.935Z,7.03
2018-08-25T06:44:03.747Z,9.70
2018-08-25T06:46:32.556Z,12.87
2018-08-25T06:49:01.521Z,9.73
2018-08-25T06:51:30.303Z,9.43
2018-08-25T06:53:59.176Z,9.40
2018-08-25T06:56:27.976Z,6.97
2018-08-25T06:58:56.799Z,7.00
2018-08-25T07:01:25.639Z,7.07
2018-08-25T07:03:54.573Z,11.10
2018-08-25T07:06:23.392Z,7.43
2018-08-25T07:08:52.342Z,8.93
2018-08-25T07:11:21.135Z,7.43
2018-08-25T07:13:49.976Z,8.33
2018-08-25T07:16:19.611Z,8.50
2018-08-25T07:18:48.495Z,7.43
2018-08-25T07:21:17.291Z,9.07
2018-08-25T07:23:46.132Z,6.13
2018-08-25T07:26:14.988Z,6.07
2018-08-25T07:28:43.689Z,7.13
2018-08-25T07:31:12.471Z,8.57
2018-08-25T07:33:41.260Z,11.20
2018-08-25T07:36:10.015Z,9.17
2018-08-25T07:38:38.846Z,7.70
2018-08-25T07:41:07.667Z,5.60
2018-08-25T07:43:36.681Z,8.77
2018-08-25T07:46:05.528Z,8.33
2018-08-25T07:48:34.407Z,8.63
2018-08-25T07:51:03.236Z,11.73
2018-08-25T07:53:32.007Z,7.90
2018-08-25T07:56:00.780Z,7.93
2018-08-25T07:58:29.613Z,6.53
2018-08-25T08:00:58.531Z,5.40
2018-08-25T08:03:27.344Z,6.90
2018-08-25T08:05:56.128Z,6.53
2018-08-25T08:08:24.904Z,9.90
2018-08-25T08:10:53.792Z,6.53
2018-08-25T08:13:22.579Z,7.17
2018-08-25T08:15:51.365Z,7.30
2018-08-25T08:18:20.175Z,8.67
2018-08-25T08:20:48.954Z,5.93
2018-08-25T08:23:17.714Z,6.10
2018-08-25T08:25:46.583Z,11.07
2018-08-25T08:28:15.455Z,6.23
2018-08-25T08:30:44.222Z,7.10
2018-08-25T08:33:12.988Z,4.80
2018-08-25T08:35:41.776Z,8.07
2018-08-25T08:38:10.544Z,8.60
2018-08-25T08:40:39.340Z,6.50
2018-08-25T08:43:08.220Z,7.80
2018-08-25T08:45:37.019Z,9.27
2018-08-25T08:48:05.817Z,7.60
2018-08-25T08:50:34.713Z,6.87
2018-08-25T08:53:03.374Z,6.87
2018-08-25T08:55:32.162Z,8.23
2018-08-25T08:58:01.080Z,8.40
2018-08-25T09:00:30.181Z,5.87
2018-08-25T09:02:59.326Z,7.20
2018-08-25T09:05:28.371Z,7.10
2018-08-25T09:07:57.147Z,6.73
2018-08-25T09:10:26.075Z,8.33
2018-08-25T09:12:54.860Z,7.30
2018-08-25T09:15:23.619Z,9.97
2018-08-25T09:17:52.448Z,7.17
2018-08-25T09:20:21.719Z,8.07
2018-08-25T09:22:50.557Z,6.13
2018-08-25T09:25:19.400Z,6.60
2018-08-25T09:27:48.936Z,5.80
2018-08-25T09:30:17.862Z,5.97
2018-08-25T09:32:46.705Z,6.17
2018-08-25T09:35:15.855Z,8.67
2018-08-25T09:37:45.100Z,5.27
2018-08-25T09:40:13.976Z,8.43
2018-08-25T09:42:42.957Z,8.17
2018-08-25T09:45:11.922Z,6.13
2018-08-25T09:47:40.770Z,6.40
2018-08-25T09:50:09.971Z,7.37
2018-08-25T09:52:38.820Z,5.60
2018-08-25T09:55:08.157Z,7.70
2018-08-25T09:57:39.572Z,6.17
2018-08-25T10:00:09.994Z,6.53
2018-08-25T10:02:38.847Z,10.17
2018-08-25T10:05:07.944Z,7.20
2018-08-25T10:07:37.095Z,9.70
2018-08-25T10:10:06.946Z,6.77
2018-08-25T10:12:35.831Z,7.63
2018-08-25T10:15:04.913Z,5.67
2018-08-25T10:17:34.475Z,7.73
2018-08-25T10:20:03.342Z,9.13
2018-08-25T10:22:32.339Z,11.03
2018-08-25T10:25:01.323Z,9.73
2018-08-25T10:27:30.152Z,5.53
2018-08-25T10:29:59.320Z,5.67
2018-08-25T10:32:28.320Z,8.50
2018-08-25T10:34:57.304Z,10.50
2018-08-25T10:37:26.120Z,10.97
2018-08-25T10:39:54.931Z,6.93
2018-08-25T10:42:24.001Z,6.23
2018-08-25T10:44:52.834Z,8.13
2018-08-25T10:47:21.681Z,11.17
2018-08-25T10:49:50.699Z,10.50
2018-08-25T10:52:19.889Z,7.60
2018-08-25T10:54:48.779Z,6.90
2018-08-25T10:57:17.622Z,8.47
2018-08-25T10:59:46.439Z,7.50
2018-08-25T11:02:20.731Z,6.10
2018-08-25T11:04:49.804Z,9.67
2018-08-25T11:07:18.850Z,5.70
2018-08-25T11:09:47.640Z,8.83
2018-08-25T11:12:17.711Z,7.40
2018-08-25T11:14:46.889Z,10.13
2018-08-25T11:17:16.057Z,5.83
2018-08-25T11:19:44.875Z,4.30
2018-08-25T11:22:14.302Z,6.60
2018-08-25T11:24:43.415Z,5.87
2018-08-25T11:27:13.177Z,6.80
2018-08-25T11:29:42.306Z,3.53
2018-08-25T11:32:11.384Z,6.53
2018-08-25T11:34:40.196Z,6.37
2018-08-25T11:37:09.080Z,5.07
2018-08-25T11:39:39.138Z,5.37
2018-08-25T11:42:08.044Z,5.47
2018-08-25T11:44:36.915Z,6.43
2018-08-25T11:47:10.348Z,5.33
2018-08-25T11:49:39.228Z,6.67
2018-08-25T11:52:08.303Z,4.80
2018-08-25T11:54:37.123Z,4.63
2018-08-25T11:57:05.935Z,5.90
2018-08-25T11:59:34.826Z,6.10
2018-08-25T12:02:03.634Z,4.93
2018-08-25T12:04:32.699Z,3.60
2018-08-25T12:07:01.491Z,7.53
2018-08-25T12:09:30.316Z,5.13
2018-08-25T12:11:59.174Z,4.50
2018-08-25T12:14:27.989Z,5.53
2018-08-25T12:16:56.900Z,7.67
2018-08-25T12:19:25.740Z,4.57
2018-08-25T12:21:54.605Z,4.53
2018-08-25T12:24:23.435Z,6.17
2018-08-25T12:26:53.997Z,5.83
2018-08-25T12:29:22.808Z,3.03
2018-08-25T12:31:51.595Z,4.93
2018-08-25T12:34:20.391Z,5.13
2018-08-25T12:36:49.207Z,3.97
2018-08-25T12:39:18.326Z,5.47
2018-08-25T12:41:47.059Z,4.80
2018-08-25T12:44:18.416Z,4.63
2018-08-25T12:46:48.067Z,4.70
2018-08-25T12:49:18.323Z,7.87
2018-08-25T12:51:48.138Z,6.63
2018-08-25T12:54:17.257Z,6.07
2018-08-25T12:56:46.608Z,6.40
2018-08-25T12:59:16.554Z,4.77
2018-08-25T13:01:45.403Z,4.40
2018-08-25T13:04:21.447Z,6.93
2018-08-25T13:06:52.464Z,4.23
2018-08-25T13:09:23.527Z,5.33
2018-08-25T13:11:53.133Z,3.40
2018-08-25T13:14:22.432Z,5.77
2018-08-25T13:16:53.372Z,4.53
2018-08-25T13:19:28.948Z,6.17
2018-08-25T13:22:00.544Z,5.40
2018-08-25T13:24:32.351Z,3.30
2018-08-25T13:27:06.135Z,5.40
2018-08-25T13:29:34.888Z,4.17
2018-08-25T13:32:04.043Z,3.53
2018-08-25T13:34:32.817Z,4.40
2018-08-25T13:37:01.596Z,4.33
2018-08-25T13:39:30.768Z,4.60
2018-08-25T13:41:59.515Z,3.63
2018-08-25T13:44:28.295Z,4.57
2018-08-25T13:46:57.064Z,3.10
2018-08-25T13:49:25.941Z,3.50
2018-08-25T13:51:54.711Z,5.20
2018-08-25T13:54:23.471Z,3.47
2018-08-25T13:56:52.220Z,4.13
2018-08-25T13:59:20.997Z,5.10
2018-08-25T14:01:49.755Z,2.97
2018-08-25T14:04:18.522Z,3.70
2018-08-25T14:06:47.307Z,3.93
2018-08-25T14:09:16.099Z,4.10
2018-08-25T14:11:45.388Z,2.93
2018-08-25T14:14:14.552Z,3.43
2018-08-25T14:16:43.610Z,3.30
2018-08-25T14:19:12.713Z,3.60
2018-08-25T14:21:41.515Z,2.47
2018-08-25T14:24:10.982Z,4.23
2018-08-25T14:26:39.746Z,3.97
2018-08-25T14:29:08.603Z,2.57
2018-08-25T14:31:37.359Z,2.77
2018-08-25T14:34:06.144Z,3.80
2018-08-25T14:36:34.977Z,3.40
2018-08-25T14:39:05.819Z,1.10
2018-08-25T14:41:34.654Z,2.73
2018-08-25T14:44:03.844Z,2.40
2018-08-25T14:46:34.023Z,2.37
2018-08-25T14:49:02.903Z,3.30
2018-08-25T14:51:31.696Z,6.97
2018-08-25T14:54:00.580Z,3.73
2018-08-25T14:56:29.595Z,4.40
2018-08-25T14:58:58.791Z,3.47
2018-08-25T15:01:27.614Z,1.97
2018-08-25T15:03:56.768Z,2.80
2018-08-25T15:06:25.685Z,3.70
2018-08-25T15:08:54.948Z,5.33
2018-08-25T15:11:23.705Z,3.97
2018-08-25T15:13:52.588Z,4.53
2018-08-25T15:16:21.368Z,3.73
2018-08-25T15:18:55.078Z,3.03
2018-08-25T15:21:23.787Z,2.63
2018-08-25T15:23:52.586Z,4.07
2018-08-25T15:26:21.447Z,2.47
2018-08-25T15:28:50.328Z,6.13
2018-08-25T15:31:19.088Z,3.57
2018-08-25T15:33:47.966Z,3.80
2018-08-25T15:36:16.755Z,4.73
2018-08-25T15:38:45.531Z,2.23
2018-08-25T15:41:14.412Z,3.07
2018-08-25T15:43:43.226Z,3.40
2018-08-25T15:46:12.021Z,2.67
2018-08-25T15:48:40.819Z,3.43
2018-08-25T15:51:09.594Z,3.10
2018-08-25T15:53:38.486Z,3.00
2018-08-25T15:56:07.375Z,4.93
2018-08-25T15:58:36.152Z,2.90
2018-08-25T16:01:05.060Z,2.57
2018-08-25T16:03:33.959Z,2.73
2018-08-25T16:06:03.356Z,4.43
2018-08-25T16:08:32.084Z,3.67
2018-08-25T16:11:01.245Z,2.70
2018-08-25T16:13:30.035Z,2.17
2018-08-25T16:15:58.832Z,3.30
2018-08-25T16:18:27.632Z,4.57
2018-08-25T16:20:56.595Z,1.93
2018-08-25T16:23:25.401Z,3.27
2018-08-25T16:25:54.163Z,1.77
2018-08-25T16:28:22.979Z,1.77
2018-08-25T16:30:51.851Z,2.60
2018-08-25T16:33:20.620Z,2.50
2018-08-25T16:35:49.421Z,1.50
2018-08-25T16:38:18.182Z,2.93
2018-08-25T16:40:46.988Z,2.43
2018-08-25T16:43:15.757Z,1.93
2018-08-25T16:45:44.539Z,1.47
2018-08-25T16:48:13.295Z,2.87
2018-08-25T16:50:42.077Z,2.23
2018-08-25T16:53:10.846Z,1.47
2018-08-25T16:55:39.712Z,2.37
2018-08-25T16:58:08.499Z,1.53
2018-08-25T17:00:37.267Z,3.17
2018-08-25T17:03:06.018Z,2.63
2018-08-25T17:05:34.791Z,2.63
2018-08-25T17:08:03.569Z,2.00
2018-08-25T17:10:32.807Z,2.40
2018-08-25T17:13:01.584Z,2.03
2018-08-25T17:15:30.343Z,4.23
2018-08-25T17:17:59.208Z,2.20
2018-08-25T17:20:27.999Z,2.20
2018-08-25T17:22:56.755Z,2.50
2018-08-25T17:25:25.534Z,6.03
2018-08-25T17:27:54.295Z,2.13
2018-08-25T17:30:23.072Z,2.77
2018-08-25T17:32:51.838Z,2.43
2018-08-25T17:35:20.611Z,2.33
2018-08-25T17:37:49.371Z,3.33
2018-08-25T17:40:18.138Z,2.20
2018-08-25T17:42:46.883Z,2.80
2018-08-25T17:45:15.648Z,2.90
2018-08-25T17:47:44.411Z,2.10
2018-08-25T17:50:13.175Z,3.37
2018-08-25T17:52:41.962Z,3.00
2018-08-25T17:55:10.836Z,4.67
2018-08-25T17:57:39.828Z,2.20
2018-08-25T18:00:08.348Z,2.90
2018-08-25T18:02:37.132Z,3.27
2018-08-25T18:05:05.923Z,2.60
2018-08-25T18:07:34.671Z,2.70
2018-08-25T18:10:03.487Z,2.37
2018-08-25T18:12:32.259Z,2.93
2018-08-25T18:15:01.041Z,3.17
2018-08-25T18:17:29.898Z,3.37
2018-08-25T18:19:58.599Z,3.17
2018-08-25T18:22:27.383Z,2.70
2018-08-25T18:24:56.199Z,3.10
2018-08-25T18:27:24.994Z,4.30
2018-08-25T18:29:53.759Z,2.27
2018-08-25T18:32:25.058Z,2.90
2018-08-25T18:34:55.644Z,6.40
2018-08-25T18:37:25.635Z,5.10
2018-08-25T18:39:55.146Z,4.80
2018-08-25T18:42:25.746Z,8.20
2018-08-25T18:44:56.429Z,3.87
2018-08-25T18:47:26.195Z,2.97
2018-08-25T18:49:56.451Z,3.40
2018-08-25T18:52:26.913Z,2.67
2018-08-25T18:54:58.877Z,4.37
2018-08-25T18:57:29.411Z,4.03
2018-08-25T19:00:01.184Z,2.63
2018-08-25T19:02:30.884Z,3.47
2018-08-25T19:05:00.138Z,3.73
2018-08-25T19:07:29.683Z,2.83
2018-08-25T19:10:00.342Z,3.80
2018-08-25T19:12:31.725Z,5.00
2018-08-25T19:15:02.929Z,5.03
2018-08-25T19:17:33.384Z,3.40
2018-08-25T19:20:04.159Z,3.20
2018-08-25T19:22:35.295Z,3.70
2018-08-25T19:25:06.427Z,2.90
2018-08-25T19:27:37.524Z,3.47
2018-08-25T19:30:09.864Z,4.07
2018-08-25T19:32:40.744Z,4.33
2018-08-25T19:35:11.556Z,3.17
2018-08-25T19:37:40.822Z,3.43
2018-08-25T19:40:11.140Z,3.00
2018-08-25T19:42:42.216Z,3.63
2018-08-25T19:45:14.294Z,3.70
2018-08-25T19:47:44.383Z,4.23
2018-08-25T19:50:14.964Z,4.97
2018-08-25T19:52:46.038Z,5.10
2018-08-25T19:55:16.347Z,4.23
2018-08-25T19:57:48.744Z,4.57
2018-08-25T20:00:22.210Z,3.57
2018-08-25T20:02:54.200Z,5.20
2018-08-25T20:05:29.153Z,4.73
2018-08-25T20:08:00.564Z,4.47
2018-08-25T20:10:39.310Z,4.70
2018-08-25T20:13:10.330Z,5.07
2018-08-25T20:15:43.469Z,4.30
2018-08-25T20:18:15.191Z,4.27
2018-08-25T20:20:48.558Z,3.80
2018-08-25T20:23:20.657Z,3.30
2018-08-25T20:25:58.088Z,4.53
2018-08-25T20:28:32.189Z,3.00
2018-08-25T20:31:07.121Z,3.20
2018-08-25T20:33:37.910Z,4.00
2018-08-25T20:36:09.976Z,3.03
2018-08-25T20:38:44.953Z,4.33
2018-08-25T20:41:16.423Z,5.40
2018-08-25T20:43:50.384Z,4.07
2018-08-25T20:46:22.390Z,5.73
2018-08-25T20:48:54.441Z,3.53
2018-08-25T20:51:25.400Z,3.63
2018-08-25T20:53:57.085Z,5.03
2018-08-25T20:56:30.356Z,4.40
2018-08-25T20:59:04.516Z,5.07
2018-08-25T21:01:38.462Z,6.33
2018-08-25T21:04:10.873Z,6.03
2018-08-25T21:06:44.207Z,3.03
2018-08-25T21:09:16.729Z,4.30
2018-08-25T21:11:47.401Z,4.33
2018-08-25T21:14:19.248Z,3.43
2018-08-25T21:16:51.485Z,3.50
2018-08-25T21:19:23.091Z,4.60
2018-08-25T21:21:54.310Z,4.60
2018-08-25T21:24:25.826Z,3.90
2018-08-25T21:26:59.644Z,2.67
2018-08-25T21:29:30.439Z,6.03
2018-08-25T21:32:03.085Z,4.30
2018-08-25T21:34:34.901Z,6.93
2018-08-25T21:37:08.068Z,2.97
2018-08-25T21:39:39.695Z,2.83
2018-08-25T21:42:11.954Z,2.40
2018-08-25T21:44:42.736Z,2.30
2018-08-25T21:47:15.721Z,2.10
2018-08-25T21:49:46.318Z,4.30
2018-08-25T21:52:17.189Z,2.80
2018-08-25T21:54:51.287Z,6.50
2018-08-25T21:57:21.830Z,2.97
2018-08-25T21:59:53.446Z,3.60
2018-08-25T22:02:23.123Z,4.37
2018-08-25T22:04:57.563Z,2.40
2018-08-25T22:07:29.820Z,2.90
2018-08-25T22:09:59.714Z,4.33
2018-08-25T22:12:30.250Z,3.87
2018-08-25T22:14:59.877Z,3.43
2018-08-25T22:17:29.331Z,4.13
2018-08-25T22:19:58.633Z,2.43
2018-08-25T22:22:28.998Z,5.23
2018-08-25T22:24:59.385Z,3.73
2018-08-25T22:27:30.132Z,4.40
2018-08-25T22:30:01.157Z,3.90
2018-08-25T22:32:31.989Z,3.03
2018-08-25T22:35:01.453Z,3.57
2018-08-25T22:37:32.067Z,6.40
2018-08-25T22:40:02.419Z,6.17
2018-08-25T22:42:31.945Z,3.50
2018-08-25T22:45:02.381Z,3.93
2018-08-25T22:47:32.739Z,3.60
2018-08-25T22:50:02.413Z,3.30
2018-08-25T22:52:37.658Z,3.20
2018-08-25T22:55:07.712Z,4.03
2018-08-25T22:57:37.875Z,3.73
2018-08-25T23:00:08.209Z,2.93
2018-08-25T23:02:41.131Z,4.63
2018-08-25T23:05:12.376Z,3.50
2018-08-25T23:07:42.969Z,3.17
2018-08-25T23:10:12.647Z,3.97
2018-08-25T23:12:43.282Z,3.60
2018-08-25T23:15:13.023Z,2.83
2018-08-25T23:17:43.892Z,3.57
2018-08-25T23:20:15.088Z,3.33
2018-08-25T23:22:44.621Z,3.47
2018-08-25T23:25:16.263Z,7.07
2018-08-25T23:27:46.659Z,2.93
2018-08-25T23:30:17.630Z,4.40
2018-08-25T23:32:47.661Z,4.47
2018-08-25T23:35:16.576Z,4.13
2018-08-25T23:37:45.956Z,5.17
2018-08-25T23:40:14.860Z,3.50
2018-08-25T23:42:43.644Z,3.57
2018-08-25T23:45:12.429Z,2.83
2018-08-25T23:47:41.291Z,2.90
2018-08-25T23:50:10.162Z,2.97
2018-08-25T23:52:38.942Z,4.30
2018-08-25T23:55:08.331Z,3.80
2018-08-25T23:57:37.111Z,3.30
